createdAt,value
2018-12-16T00:00:00.092Z,1033.59339383
2018-12-16T00:00:12.465Z,1033.55952995
2018-12-16T00:00:24.827Z,1033.55952995
2018-12-16T00:00:37.177Z,1033.55952995
2018-12-16T00:00:49.522Z,1033.55952995
2018-12-16T00:01:01.918Z,1033.55952995
2018-12-16T00:01:14.304Z,1033.55952995
2018-12-16T00:01:26.661Z,1033.55952995
2018-12-16T00:01:38.998Z,1033.55952995
2018-12-16T00:01:51.365Z,1033.55952995
2018-12-16T00:02:03.707Z,1033.62725772
2018-12-16T00:02:16.046Z,1033.62725772
2018-12-16T00:02:28.389Z,1033.62725772
2018-12-16T00:02:40.738Z,1033.62725772
2018-12-16T00:02:53.093Z,1033.62725772
2018-12-16T00:03:05.441Z,1033.59339383
2018-12-16T00:03:17.781Z,1033.59339383
2018-12-16T00:03:30.125Z,1033.59339383
2018-12-16T00:03:42.474Z,1033.59339383
2018-12-16T00:03:54.843Z,1033.59339383
2018-12-16T00:04:07.172Z,1033.52566607
2018-12-16T00:04:19.523Z,1033.52566607
2018-12-16T00:04:31.866Z,1033.52566607
2018-12-16T00:04:52.222Z,1033.52566607
2018-12-16T00:05:04.597Z,1033.59339383
2018-12-16T00:05:16.948Z,1033.59339383
2018-12-16T00:05:29.320Z,1033.59339383
2018-12-16T00:05:41.879Z,1033.59339383
2018-12-16T00:05:54.243Z,1033.59339383
2018-12-16T00:06:06.602Z,1033.55952995
2018-12-16T00:06:18.933Z,1033.55952995
2018-12-16T00:06:31.268Z,1033.55952995
2018-12-16T00:06:43.602Z,1033.55952995
2018-12-16T00:06:55.961Z,1033.55952995
2018-12-16T00:07:08.362Z,1033.69498548
2018-12-16T00:07:20.708Z,1033.69498548
2018-12-16T00:07:33.054Z,1033.69498548
2018-12-16T00:07:45.520Z,1033.69498548
2018-12-16T00:07:57.868Z,1033.69498548
2018-12-16T00:08:10.205Z,1033.52566607
2018-12-16T00:08:22.540Z,1033.52566607
2018-12-16T00:08:34.872Z,1033.52566607
2018-12-16T00:08:47.242Z,1033.52566607
2018-12-16T00:08:59.586Z,1033.52566607
2018-12-16T00:09:11.944Z,1033.52566607
2018-12-16T00:09:24.363Z,1033.52566607
2018-12-16T00:09:36.712Z,1033.52566607
2018-12-16T00:09:49.050Z,1033.52566607
2018-12-16T00:10:01.463Z,1033.52566607
2018-12-16T00:10:13.833Z,1033.52566607
2018-12-16T00:10:26.171Z,1033.52566607
2018-12-16T00:10:38.507Z,1033.52566607
2018-12-16T00:10:50.844Z,1033.52566607
2018-12-16T00:11:03.191Z,1033.55952995
2018-12-16T00:11:15.539Z,1033.55952995
2018-12-16T00:11:27.886Z,1033.55952995
2018-12-16T00:11:40.219Z,1033.55952995
2018-12-16T00:11:52.566Z,1033.55952995
2018-12-16T00:12:04.908Z,1033.52566607
2018-12-16T00:12:17.251Z,1033.52566607
2018-12-16T00:12:29.608Z,1033.52566607
2018-12-16T00:12:42.227Z,1033.52566607
2018-12-16T00:12:54.649Z,1033.52566607
2018-12-16T00:13:08.457Z,1033.52566607
2018-12-16T00:13:20.795Z,1033.52566607
2018-12-16T00:13:33.128Z,1033.52566607
2018-12-16T00:13:45.475Z,1033.52566607
2018-12-16T00:13:57.828Z,1033.52566607
2018-12-16T00:14:10.173Z,1033.52566607
2018-12-16T00:14:22.509Z,1033.52566607
2018-12-16T00:14:34.836Z,1033.52566607
2018-12-16T00:14:47.240Z,1033.52566607
2018-12-16T00:14:59.613Z,1033.52566607
2018-12-16T00:15:11.965Z,1033.42407443
2018-12-16T00:15:24.304Z,1033.42407443
2018-12-16T00:15:36.651Z,1033.42407443
2018-12-16T00:15:49.016Z,1033.42407443
2018-12-16T00:16:01.414Z,1033.39021054
2018-12-16T00:16:13.764Z,1033.39021054
2018-12-16T00:16:26.134Z,1033.39021054
2018-12-16T00:16:38.504Z,1033.39021054
2018-12-16T00:16:50.848Z,1033.39021054
2018-12-16T00:17:03.198Z,1033.45793831
2018-12-16T00:17:15.605Z,1033.45793831
2018-12-16T00:17:27.960Z,1033.45793831
2018-12-16T00:17:40.305Z,1033.45793831
2018-12-16T00:17:52.672Z,1033.45793831
2018-12-16T00:18:05.031Z,1033.42407443
2018-12-16T00:18:17.392Z,1033.42407443
2018-12-16T00:18:29.749Z,1033.42407443
2018-12-16T00:18:42.210Z,1033.42407443
2018-12-16T00:18:54.545Z,1033.42407443
2018-12-16T00:19:06.899Z,1033.39021054
2018-12-16T00:19:19.245Z,1033.39021054
2018-12-16T00:19:31.644Z,1033.39021054
2018-12-16T00:19:44.135Z,1033.39021054
2018-12-16T00:19:56.471Z,1033.39021054
2018-12-16T00:20:08.811Z,1033.32248278
2018-12-16T00:20:21.156Z,1033.32248278
2018-12-16T00:20:33.497Z,1033.32248278
2018-12-16T00:20:45.844Z,1033.32248278
2018-12-16T00:20:58.436Z,1033.32248278
2018-12-16T00:21:10.937Z,1033.35634666
2018-12-16T00:21:24.159Z,1033.35634666
2018-12-16T00:21:36.503Z,1033.35634666
2018-12-16T00:21:48.856Z,1033.35634666
2018-12-16T00:22:01.198Z,1033.42407443
2018-12-16T00:22:13.536Z,1033.42407443
2018-12-16T00:22:32.104Z,1033.42407443
2018-12-16T00:22:44.453Z,1033.42407443
2018-12-16T00:22:56.810Z,1033.42407443
2018-12-16T00:23:09.156Z,1033.39021054
2018-12-16T00:23:21.560Z,1033.39021054
2018-12-16T00:23:33.902Z,1033.39021054
2018-12-16T00:23:46.264Z,1033.39021054
2018-12-16T00:23:58.624Z,1033.39021054
2018-12-16T00:24:11.002Z,1033.45793831
2018-12-16T00:24:23.412Z,1033.45793831
2018-12-16T00:24:35.755Z,1033.45793831
2018-12-16T00:24:48.140Z,1033.45793831
2018-12-16T00:25:00.601Z,1033.45793831
2018-12-16T00:25:12.957Z,1033.45793831
2018-12-16T00:25:25.310Z,1033.45793831
2018-12-16T00:25:37.658Z,1033.45793831
2018-12-16T00:25:50.011Z,1033.45793831
2018-12-16T00:26:02.350Z,1033.49180219
2018-12-16T00:26:14.718Z,1033.49180219
2018-12-16T00:26:27.257Z,1033.49180219
2018-12-16T00:26:39.598Z,1033.49180219
2018-12-16T00:26:52.013Z,1033.49180219
2018-12-16T00:27:04.349Z,1033.45793831
2018-12-16T00:27:16.699Z,1033.45793831
2018-12-16T00:27:29.121Z,1033.45793831
2018-12-16T00:27:41.468Z,1033.45793831
2018-12-16T00:27:53.802Z,1033.45793831
2018-12-16T00:28:06.131Z,1033.45793831
2018-12-16T00:28:18.473Z,1033.45793831
2018-12-16T00:28:30.801Z,1033.45793831
2018-12-16T00:28:43.153Z,1033.45793831
2018-12-16T00:28:55.488Z,1033.45793831
2018-12-16T00:29:07.845Z,1033.42407443
2018-12-16T00:29:20.199Z,1033.42407443
2018-12-16T00:29:32.552Z,1033.42407443
2018-12-16T00:29:44.896Z,1033.42407443
2018-12-16T00:29:57.308Z,1033.42407443
2018-12-16T00:30:09.652Z,1033.42407443
2018-12-16T00:30:21.992Z,1033.42407443
2018-12-16T00:30:34.348Z,1033.42407443
2018-12-16T00:30:46.762Z,1033.42407443
2018-12-16T00:30:59.118Z,1033.42407443
2018-12-16T00:31:11.471Z,1033.45793831
2018-12-16T00:31:23.882Z,1033.45793831
2018-12-16T00:31:36.226Z,1033.45793831
2018-12-16T00:31:48.598Z,1033.45793831
2018-12-16T00:32:00.944Z,1033.39021054
2018-12-16T00:32:13.470Z,1033.39021054
2018-12-16T00:32:25.826Z,1033.39021054
2018-12-16T00:32:38.164Z,1033.39021054
2018-12-16T00:32:50.502Z,1033.39021054
2018-12-16T00:33:02.838Z,1033.39021054
2018-12-16T00:33:15.163Z,1033.39021054
2018-12-16T00:33:27.642Z,1033.39021054
2018-12-16T00:33:39.977Z,1033.39021054
2018-12-16T00:33:52.337Z,1033.39021054
2018-12-16T00:34:04.688Z,1033.39021054
2018-12-16T00:34:17.040Z,1033.39021054
2018-12-16T00:34:29.389Z,1033.39021054
2018-12-16T00:34:41.729Z,1033.39021054
2018-12-16T00:34:54.076Z,1033.39021054
2018-12-16T00:35:06.404Z,1033.35634666
2018-12-16T00:35:19.022Z,1033.35634666
2018-12-16T00:35:31.367Z,1033.35634666
2018-12-16T00:35:43.865Z,1033.35634666
2018-12-16T00:35:56.207Z,1033.35634666
2018-12-16T00:36:08.573Z,1033.35634666
2018-12-16T00:36:20.958Z,1033.35634666
2018-12-16T00:36:33.477Z,1033.35634666
2018-12-16T00:36:45.818Z,1033.35634666
2018-12-16T00:36:58.236Z,1033.35634666
2018-12-16T00:37:10.562Z,1033.2886189
2018-12-16T00:37:23.001Z,1033.2886189
2018-12-16T00:37:35.587Z,1033.2886189
2018-12-16T00:37:48.053Z,1033.2886189
2018-12-16T00:38:00.395Z,1033.2886189
2018-12-16T00:38:12.752Z,1033.32248278
2018-12-16T00:38:25.160Z,1033.32248278
2018-12-16T00:38:37.501Z,1033.32248278
2018-12-16T00:38:49.841Z,1033.32248278
2018-12-16T00:39:02.176Z,1033.2886189
2018-12-16T00:39:14.710Z,1033.2886189
2018-12-16T00:39:27.228Z,1033.2886189
2018-12-16T00:39:39.585Z,1033.2886189
2018-12-16T00:39:52.032Z,1033.2886189
2018-12-16T00:40:04.380Z,1033.25475502
2018-12-16T00:40:16.840Z,1033.25475502
2018-12-16T00:40:29.191Z,1033.25475502
2018-12-16T00:40:41.538Z,1033.25475502
2018-12-16T00:40:54.002Z,1033.25475502
2018-12-16T00:41:06.467Z,1033.15316337
2018-12-16T00:41:18.832Z,1033.15316337
2018-12-16T00:41:31.176Z,1033.15316337
2018-12-16T00:41:43.501Z,1033.15316337
2018-12-16T00:41:55.892Z,1033.15316337
2018-12-16T00:42:08.233Z,1033.35634666
2018-12-16T00:42:20.562Z,1033.35634666
2018-12-16T00:42:32.903Z,1033.35634666
2018-12-16T00:42:45.255Z,1033.35634666
2018-12-16T00:42:57.591Z,1033.35634666
2018-12-16T00:43:09.998Z,1033.22089114
2018-12-16T00:43:22.343Z,1033.22089114
2018-12-16T00:43:34.679Z,1033.22089114
2018-12-16T00:43:47.018Z,1033.22089114
2018-12-16T00:43:59.371Z,1033.22089114
2018-12-16T00:44:12.177Z,1033.15316337
2018-12-16T00:44:24.523Z,1033.15316337
2018-12-16T00:44:36.861Z,1033.15316337
2018-12-16T00:44:49.324Z,1033.15316337
2018-12-16T00:45:01.719Z,1033.15316337
2018-12-16T00:45:14.140Z,1033.15316337
2018-12-16T00:45:26.483Z,1033.15316337
2018-12-16T00:45:38.923Z,1033.15316337
2018-12-16T00:45:51.269Z,1033.15316337
2018-12-16T00:46:03.660Z,1033.08543561
2018-12-16T00:46:15.991Z,1033.08543561
2018-12-16T00:46:28.316Z,1033.08543561
2018-12-16T00:46:40.651Z,1033.08543561
2018-12-16T00:46:53.165Z,1033.08543561
2018-12-16T00:47:05.523Z,1033.08543561
2018-12-16T00:47:17.860Z,1033.08543561
2018-12-16T00:47:30.194Z,1033.08543561
2018-12-16T00:47:42.529Z,1033.08543561
2018-12-16T00:47:56.742Z,1033.08543561
2018-12-16T00:48:09.091Z,1033.15316337
2018-12-16T00:48:21.424Z,1033.15316337
2018-12-16T00:48:33.796Z,1033.15316337
2018-12-16T00:48:46.127Z,1033.15316337
2018-12-16T00:48:58.554Z,1033.15316337
2018-12-16T00:49:10.904Z,1033.11929949
2018-12-16T00:49:23.259Z,1033.11929949
2018-12-16T00:49:35.621Z,1033.11929949
2018-12-16T00:49:47.978Z,1033.11929949
2018-12-16T00:50:00.390Z,1033.11929949
2018-12-16T00:50:12.811Z,1033.08543561
2018-12-16T00:50:25.150Z,1033.08543561
2018-12-16T00:50:37.478Z,1033.08543561
2018-12-16T00:50:49.874Z,1033.08543561
2018-12-16T00:51:02.224Z,1033.11929949
2018-12-16T00:51:14.633Z,1033.11929949
2018-12-16T00:51:26.999Z,1033.11929949
2018-12-16T00:51:39.328Z,1033.11929949
2018-12-16T00:51:51.676Z,1033.11929949
2018-12-16T00:52:04.018Z,1033.11929949
2018-12-16T00:52:16.440Z,1033.11929949
2018-12-16T00:52:28.836Z,1033.11929949
2018-12-16T00:52:47.720Z,1033.11929949
2018-12-16T00:53:00.074Z,1033.11929949
2018-12-16T00:53:12.427Z,1033.08543561
2018-12-16T00:53:24.837Z,1033.08543561
2018-12-16T00:53:37.189Z,1033.08543561
2018-12-16T00:53:49.522Z,1033.08543561
2018-12-16T00:54:01.866Z,1033.01770785
2018-12-16T00:54:14.201Z,1033.01770785
2018-12-16T00:54:26.543Z,1033.01770785
2018-12-16T00:54:38.888Z,1033.01770785
2018-12-16T00:54:51.272Z,1033.01770785
2018-12-16T00:55:03.787Z,1032.98384397
2018-12-16T00:55:16.146Z,1032.98384397
2018-12-16T00:55:28.573Z,1032.98384397
2018-12-16T00:55:40.919Z,1032.98384397
2018-12-16T00:55:53.253Z,1032.98384397
2018-12-16T00:56:05.612Z,1032.98384397
2018-12-16T00:56:17.957Z,1032.98384397
2018-12-16T00:56:30.304Z,1032.98384397
2018-12-16T00:56:42.803Z,1032.98384397
2018-12-16T00:56:55.146Z,1032.98384397
2018-12-16T00:57:07.533Z,1033.05157173
2018-12-16T00:57:20.095Z,1033.05157173
2018-12-16T00:57:32.447Z,1033.05157173
2018-12-16T00:57:44.793Z,1033.05157173
2018-12-16T00:57:57.135Z,1033.05157173
2018-12-16T00:58:09.477Z,1032.98384397
2018-12-16T00:58:21.812Z,1032.98384397
2018-12-16T00:58:34.140Z,1032.98384397
2018-12-16T00:58:46.488Z,1032.98384397
2018-12-16T00:58:58.949Z,1032.98384397
2018-12-16T00:59:11.296Z,1032.98384397
2018-12-16T00:59:23.638Z,1032.98384397
2018-12-16T00:59:35.988Z,1032.98384397
2018-12-16T00:59:48.332Z,1032.98384397
2018-12-16T01:00:00.672Z,1032.98384397
2018-12-16T01:00:13.048Z,1032.9161162
2018-12-16T01:00:25.408Z,1032.9161162
2018-12-16T01:00:37.831Z,1032.9161162
2018-12-16T01:00:50.191Z,1032.9161162
2018-12-16T01:01:02.547Z,1032.94998008
2018-12-16T01:01:14.907Z,1032.94998008
2018-12-16T01:01:27.245Z,1032.94998008
2018-12-16T01:01:39.595Z,1032.94998008
2018-12-16T01:01:51.958Z,1032.94998008
2018-12-16T01:02:04.317Z,1032.98384397
2018-12-16T01:02:16.727Z,1032.98384397
2018-12-16T01:02:29.067Z,1032.98384397
2018-12-16T01:02:41.414Z,1032.98384397
2018-12-16T01:02:53.758Z,1032.98384397
2018-12-16T01:03:06.090Z,1032.94998008
2018-12-16T01:03:18.417Z,1032.94998008
2018-12-16T01:03:30.780Z,1032.94998008
2018-12-16T01:03:43.765Z,1032.94998008
2018-12-16T01:03:56.102Z,1032.94998008
2018-12-16T01:04:08.452Z,1033.01770785
2018-12-16T01:04:20.783Z,1033.01770785
2018-12-16T01:04:33.141Z,1033.01770785
2018-12-16T01:04:45.478Z,1033.01770785
2018-12-16T01:04:57.816Z,1033.01770785
2018-12-16T01:05:10.168Z,1032.98384397
2018-12-16T01:05:22.512Z,1032.98384397
2018-12-16T01:05:34.844Z,1032.98384397
2018-12-16T01:05:47.280Z,1032.98384397
2018-12-16T01:05:59.700Z,1032.98384397
2018-12-16T01:06:12.067Z,1033.05157173
2018-12-16T01:06:24.400Z,1033.05157173
2018-12-16T01:06:36.743Z,1033.05157173
2018-12-16T01:06:49.088Z,1033.05157173
2018-12-16T01:07:01.456Z,1032.94998008
2018-12-16T01:07:13.896Z,1032.94998008
2018-12-16T01:07:26.234Z,1032.94998008
2018-12-16T01:07:38.576Z,1032.94998008
2018-12-16T01:07:51.098Z,1032.94998008
2018-12-16T01:08:03.521Z,1032.9161162
2018-12-16T01:08:15.862Z,1032.9161162
2018-12-16T01:08:28.196Z,1032.9161162
2018-12-16T01:08:40.535Z,1032.9161162
2018-12-16T01:08:52.917Z,1032.9161162
2018-12-16T01:09:05.257Z,1032.94998008
2018-12-16T01:09:17.608Z,1032.94998008
2018-12-16T01:09:29.977Z,1032.94998008
2018-12-16T01:09:42.321Z,1032.94998008
2018-12-16T01:09:54.656Z,1032.94998008
2018-12-16T01:10:06.991Z,1032.84838844
2018-12-16T01:10:19.335Z,1032.84838844
2018-12-16T01:10:31.674Z,1032.84838844
2018-12-16T01:10:44.031Z,1032.84838844
2018-12-16T01:10:56.362Z,1032.84838844
2018-12-16T01:11:08.698Z,1032.88225232
2018-12-16T01:11:21.055Z,1032.88225232
2018-12-16T01:11:33.414Z,1032.88225232
2018-12-16T01:11:45.765Z,1032.88225232
2018-12-16T01:11:58.180Z,1032.88225232
2018-12-16T01:12:10.514Z,1032.84838844
2018-12-16T01:12:22.879Z,1032.84838844
2018-12-16T01:12:35.240Z,1032.84838844
2018-12-16T01:12:47.767Z,1032.84838844
2018-12-16T01:13:00.115Z,1032.84838844
2018-12-16T01:13:12.458Z,1032.88225232
2018-12-16T01:13:24.806Z,1032.88225232
2018-12-16T01:13:37.147Z,1032.88225232
2018-12-16T01:13:49.488Z,1032.88225232
2018-12-16T01:14:01.846Z,1032.81452456
2018-12-16T01:14:14.184Z,1032.81452456
2018-12-16T01:14:26.524Z,1032.81452456
2018-12-16T01:14:38.917Z,1032.81452456
2018-12-16T01:14:51.507Z,1032.81452456
2018-12-16T01:15:03.865Z,1032.81452456
2018-12-16T01:15:16.194Z,1032.81452456
2018-12-16T01:15:28.524Z,1032.81452456
2018-12-16T01:15:40.875Z,1032.81452456
2018-12-16T01:15:53.306Z,1032.81452456
2018-12-16T01:16:05.645Z,1032.88225232
2018-12-16T01:16:18.037Z,1032.88225232
2018-12-16T01:16:30.368Z,1032.88225232
2018-12-16T01:16:42.722Z,1032.88225232
2018-12-16T01:16:55.070Z,1032.88225232
2018-12-16T01:17:07.460Z,1032.88225232
2018-12-16T01:17:19.800Z,1032.88225232
2018-12-16T01:17:32.132Z,1032.88225232
2018-12-16T01:17:44.468Z,1032.88225232
2018-12-16T01:17:56.799Z,1032.88225232
2018-12-16T01:18:09.145Z,1032.74679679
2018-12-16T01:18:21.498Z,1032.74679679
2018-12-16T01:18:33.877Z,1032.74679679
2018-12-16T01:18:46.259Z,1032.74679679
2018-12-16T01:18:58.597Z,1032.74679679
2018-12-16T01:19:11.010Z,1032.67906903
2018-12-16T01:19:23.343Z,1032.67906903
2018-12-16T01:19:35.795Z,1032.67906903
2018-12-16T01:19:48.127Z,1032.67906903
2018-12-16T01:20:00.473Z,1032.67906903
2018-12-16T01:20:12.918Z,1032.81452456
2018-12-16T01:20:25.250Z,1032.81452456
2018-12-16T01:20:37.579Z,1032.81452456
2018-12-16T01:20:49.952Z,1032.81452456
2018-12-16T01:21:02.314Z,1032.74679679
2018-12-16T01:21:14.642Z,1032.74679679
2018-12-16T01:21:27.148Z,1032.74679679
2018-12-16T01:21:39.493Z,1032.74679679
2018-12-16T01:21:51.828Z,1032.74679679
2018-12-16T01:22:04.243Z,1032.74679679
2018-12-16T01:22:16.600Z,1032.74679679
2018-12-16T01:22:28.943Z,1032.74679679
2018-12-16T01:22:47.831Z,1032.74679679
2018-12-16T01:23:00.185Z,1032.74679679
2018-12-16T01:23:12.519Z,1032.74679679
2018-12-16T01:23:24.856Z,1032.74679679
2018-12-16T01:23:37.194Z,1032.74679679
2018-12-16T01:23:49.576Z,1032.74679679
2018-12-16T01:24:01.921Z,1032.64520515
2018-12-16T01:24:14.250Z,1032.64520515
2018-12-16T01:24:27.467Z,1032.64520515
2018-12-16T01:24:39.825Z,1032.64520515
2018-12-16T01:24:52.177Z,1032.64520515
2018-12-16T01:25:04.726Z,1032.71293291
2018-12-16T01:25:17.088Z,1032.71293291
2018-12-16T01:25:29.515Z,1032.71293291
2018-12-16T01:25:41.856Z,1032.71293291
2018-12-16T01:25:54.209Z,1032.71293291
2018-12-16T01:26:06.626Z,1032.61134127
2018-12-16T01:26:18.960Z,1032.61134127
2018-12-16T01:26:31.456Z,1032.61134127
2018-12-16T01:26:43.806Z,1032.61134127
2018-12-16T01:26:56.166Z,1032.61134127
2018-12-16T01:27:08.496Z,1032.64520515
2018-12-16T01:27:20.847Z,1032.64520515
2018-12-16T01:27:33.211Z,1032.64520515
2018-12-16T01:27:45.629Z,1032.64520515
2018-12-16T01:27:58.000Z,1032.64520515
2018-12-16T01:28:10.343Z,1032.5436135
2018-12-16T01:28:22.704Z,1032.5436135
2018-12-16T01:28:35.055Z,1032.5436135
2018-12-16T01:28:47.403Z,1032.5436135
2018-12-16T01:28:59.742Z,1032.5436135
2018-12-16T01:29:12.120Z,1032.61134127
2018-12-16T01:29:24.475Z,1032.61134127
2018-12-16T01:29:36.817Z,1032.61134127
2018-12-16T01:29:49.181Z,1032.61134127
2018-12-16T01:30:01.522Z,1032.61134127
2018-12-16T01:30:13.877Z,1032.61134127
2018-12-16T01:30:26.205Z,1032.61134127
2018-12-16T01:30:38.622Z,1032.61134127
2018-12-16T01:30:51.003Z,1032.61134127
2018-12-16T01:31:03.402Z,1032.50974962
2018-12-16T01:31:15.759Z,1032.50974962
2018-12-16T01:31:28.099Z,1032.50974962
2018-12-16T01:31:40.425Z,1032.50974962
2018-12-16T01:31:52.758Z,1032.50974962
2018-12-16T01:32:05.089Z,1032.64520515
2018-12-16T01:32:17.733Z,1032.64520515
2018-12-16T01:32:30.145Z,1032.64520515
2018-12-16T01:32:42.547Z,1032.64520515
2018-12-16T01:32:54.880Z,1032.64520515
2018-12-16T01:33:07.232Z,1032.5436135
2018-12-16T01:33:19.585Z,1032.5436135
2018-12-16T01:33:31.971Z,1032.5436135
2018-12-16T01:33:44.315Z,1032.5436135
2018-12-16T01:33:56.640Z,1032.5436135
2018-12-16T01:34:08.981Z,1032.5436135
2018-12-16T01:34:21.325Z,1032.5436135
2018-12-16T01:34:33.673Z,1032.5436135
2018-12-16T01:34:47.814Z,1032.5436135
2018-12-16T01:35:00.233Z,1032.5436135
2018-12-16T01:35:12.593Z,1032.5436135
2018-12-16T01:35:25.193Z,1032.5436135
2018-12-16T01:35:37.537Z,1032.5436135
2018-12-16T01:35:49.959Z,1032.5436135
2018-12-16T01:36:02.348Z,1032.40815798
2018-12-16T01:36:14.705Z,1032.40815798
2018-12-16T01:36:27.043Z,1032.40815798
2018-12-16T01:36:39.541Z,1032.40815798
2018-12-16T01:36:51.891Z,1032.40815798
2018-12-16T01:37:04.227Z,1032.50974962
2018-12-16T01:37:16.596Z,1032.50974962
2018-12-16T01:37:29.201Z,1032.50974962
2018-12-16T01:37:41.665Z,1032.50974962
2018-12-16T01:37:54.009Z,1032.50974962
2018-12-16T01:38:06.418Z,1032.47588574
2018-12-16T01:38:18.830Z,1032.47588574
2018-12-16T01:38:31.175Z,1032.47588574
2018-12-16T01:38:43.518Z,1032.47588574
2018-12-16T01:38:55.994Z,1032.47588574
2018-12-16T01:39:08.338Z,1032.47588574
2018-12-16T01:39:20.838Z,1032.47588574
2018-12-16T01:39:33.174Z,1032.47588574
2018-12-16T01:39:45.509Z,1032.47588574
2018-12-16T01:39:57.980Z,1032.47588574
2018-12-16T01:40:10.321Z,1032.50974962
2018-12-16T01:40:22.649Z,1032.50974962
2018-12-16T01:40:35.134Z,1032.50974962
2018-12-16T01:40:47.494Z,1032.50974962
2018-12-16T01:40:59.882Z,1032.50974962
2018-12-16T01:41:12.332Z,1032.44202186
2018-12-16T01:41:24.671Z,1032.44202186
2018-12-16T01:41:36.998Z,1032.44202186
2018-12-16T01:41:49.352Z,1032.44202186
2018-12-16T01:42:01.707Z,1032.34043022
2018-12-16T01:42:14.055Z,1032.34043022
2018-12-16T01:42:26.457Z,1032.34043022
2018-12-16T01:42:38.807Z,1032.34043022
2018-12-16T01:42:51.219Z,1032.34043022
2018-12-16T01:43:03.631Z,1032.3742941
2018-12-16T01:43:15.993Z,1032.3742941
2018-12-16T01:43:28.325Z,1032.3742941
2018-12-16T01:43:40.663Z,1032.3742941
2018-12-16T01:43:52.990Z,1032.3742941
2018-12-16T01:44:05.334Z,1032.3742941
2018-12-16T01:44:17.669Z,1032.3742941
2018-12-16T01:44:30.009Z,1032.3742941
2018-12-16T01:44:42.363Z,1032.3742941
2018-12-16T01:44:54.870Z,1032.3742941
2018-12-16T01:45:07.350Z,1032.30656633
2018-12-16T01:45:19.702Z,1032.30656633
2018-12-16T01:45:32.250Z,1032.30656633
2018-12-16T01:45:44.616Z,1032.30656633
2018-12-16T01:45:56.963Z,1032.30656633
2018-12-16T01:46:09.341Z,1032.3742941
2018-12-16T01:46:21.690Z,1032.3742941
2018-12-16T01:46:34.037Z,1032.3742941
2018-12-16T01:46:46.621Z,1032.3742941
2018-12-16T01:46:58.964Z,1032.3742941
2018-12-16T01:47:11.320Z,1032.27270245
2018-12-16T01:47:23.655Z,1032.27270245
2018-12-16T01:47:36.049Z,1032.27270245
2018-12-16T01:47:48.369Z,1032.27270245
2018-12-16T01:48:00.854Z,1032.34043022
2018-12-16T01:48:13.197Z,1032.34043022
2018-12-16T01:48:25.670Z,1032.34043022
2018-12-16T01:48:38.076Z,1032.34043022
2018-12-16T01:48:50.422Z,1032.34043022
2018-12-16T01:49:02.761Z,1032.20497469
2018-12-16T01:49:15.122Z,1032.20497469
2018-12-16T01:49:27.458Z,1032.20497469
2018-12-16T01:49:39.903Z,1032.20497469
2018-12-16T01:49:52.260Z,1032.20497469
2018-12-16T01:50:04.754Z,1032.17111081
2018-12-16T01:50:17.096Z,1032.17111081
2018-12-16T01:50:29.422Z,1032.17111081
2018-12-16T01:50:41.782Z,1032.17111081
2018-12-16T01:50:54.117Z,1032.17111081
2018-12-16T01:51:06.671Z,1032.10338304
2018-12-16T01:51:19.165Z,1032.10338304
2018-12-16T01:51:31.498Z,1032.10338304
2018-12-16T01:51:43.913Z,1032.10338304
2018-12-16T01:51:56.260Z,1032.10338304
2018-12-16T01:52:08.771Z,1032.03565528
2018-12-16T01:52:21.101Z,1032.03565528
2018-12-16T01:52:33.572Z,1032.03565528
2018-12-16T01:52:52.318Z,1032.03565528
2018-12-16T01:53:04.658Z,1031.96792752
2018-12-16T01:53:16.988Z,1031.96792752
2018-12-16T01:53:29.320Z,1031.96792752
2018-12-16T01:53:41.701Z,1031.96792752
2018-12-16T01:53:54.069Z,1031.96792752
2018-12-16T01:54:06.410Z,1032.03565528
2018-12-16T01:54:18.759Z,1032.03565528
2018-12-16T01:54:31.110Z,1032.03565528
2018-12-16T01:54:43.463Z,1032.03565528
2018-12-16T01:54:55.809Z,1032.03565528
2018-12-16T01:55:08.296Z,1031.96792752
2018-12-16T01:55:20.630Z,1031.96792752
2018-12-16T01:55:32.953Z,1031.96792752
2018-12-16T01:55:45.370Z,1031.96792752
2018-12-16T01:55:57.703Z,1031.96792752
2018-12-16T01:56:10.040Z,1032.03565528
2018-12-16T01:56:22.373Z,1032.03565528
2018-12-16T01:56:34.718Z,1032.03565528
2018-12-16T01:56:47.265Z,1032.03565528
2018-12-16T01:56:59.595Z,1032.03565528
2018-12-16T01:57:11.963Z,1032.0017914
2018-12-16T01:57:24.282Z,1032.0017914
2018-12-16T01:57:36.628Z,1032.0017914
2018-12-16T01:57:49.006Z,1032.0017914
2018-12-16T01:58:01.343Z,1032.06951916
2018-12-16T01:58:13.688Z,1032.06951916
2018-12-16T01:58:26.030Z,1032.06951916
2018-12-16T01:58:38.421Z,1032.06951916
2018-12-16T01:58:50.814Z,1032.06951916
2018-12-16T01:59:03.455Z,1031.96792752
2018-12-16T01:59:15.812Z,1031.96792752
2018-12-16T01:59:28.164Z,1031.96792752
2018-12-16T01:59:40.572Z,1031.96792752
2018-12-16T01:59:52.928Z,1031.96792752
2018-12-16T02:00:05.306Z,1031.93406364
2018-12-16T02:00:17.802Z,1031.93406364
2018-12-16T02:00:30.178Z,1031.93406364
2018-12-16T02:00:42.530Z,1031.93406364
2018-12-16T02:00:54.977Z,1031.93406364
2018-12-16T02:01:07.323Z,1031.93406364
2018-12-16T02:01:19.748Z,1031.93406364
2018-12-16T02:01:32.110Z,1031.93406364
2018-12-16T02:01:44.458Z,1031.93406364
2018-12-16T02:01:56.816Z,1031.93406364
2018-12-16T02:02:09.253Z,1031.96792752
2018-12-16T02:02:21.610Z,1031.96792752
2018-12-16T02:02:33.971Z,1031.96792752
2018-12-16T02:02:46.320Z,1031.96792752
2018-12-16T02:02:58.684Z,1031.96792752
2018-12-16T02:03:11.111Z,1031.96792752
2018-12-16T02:03:23.456Z,1031.96792752
2018-12-16T02:03:35.789Z,1031.96792752
2018-12-16T02:03:48.130Z,1031.96792752
2018-12-16T02:04:00.476Z,1031.96792752
2018-12-16T02:04:12.810Z,1031.86633587
2018-12-16T02:04:25.154Z,1031.86633587
2018-12-16T02:04:37.582Z,1031.86633587
2018-12-16T02:04:49.952Z,1031.86633587
2018-12-16T02:05:02.455Z,1031.90019975
2018-12-16T02:05:14.814Z,1031.90019975
2018-12-16T02:05:27.152Z,1031.90019975
2018-12-16T02:05:39.477Z,1031.90019975
2018-12-16T02:05:51.821Z,1031.90019975
2018-12-16T02:06:04.164Z,1031.83247199
2018-12-16T02:06:16.643Z,1031.83247199
2018-12-16T02:06:28.992Z,1031.83247199
2018-12-16T02:06:41.351Z,1031.83247199
2018-12-16T02:06:53.694Z,1031.83247199
2018-12-16T02:07:06.130Z,1031.86633587
2018-12-16T02:07:18.551Z,1031.86633587
2018-12-16T02:07:30.918Z,1031.86633587